Time;durP1;ratioP1;P1;durP2;ratioP2;P2;SDS_P1;SDS_P2;PMS_P1;PMS_P2;Temp;Humidity;BMP_temperature;BMP_pressure;BME280_temperature;BME280_humidity;BME280_pressure;Samples;Min_cycle;Max_cycle;Signal;HPM_P1;HPM_P2
2023/10/04 00:00:40;;;;;;;;;;;12.70;99.90;;;;;;4843076;29;19924;-76
2023/10/04 00:03:05;;;;;;;;;;;12.60;99.90;;;;;;4841005;29;20369;-76
2023/10/04 00:05:31;;;;;;;;;;;12.60;99.90;;;;;;4840915;29;19928;-76
2023/10/04 00:07:56;;;;;;;;;;;12.60;99.90;;;;;;4825602;29;19935;-75
2023/10/04 00:10:23;;;;;;;;;;;12.60;99.90;;;;;;4810349;29;20361;-75
2023/10/04 00:12:49;;;;;;;;;;;12.60;99.90;;;;;;4840487;29;19935;-75
2023/10/04 00:15:15;;;;;;;;;;;12.60;99.90;;;;;;4840016;29;19920;-75
2023/10/04 00:17:42;;;;;;;;;;;12.50;99.90;;;;;;4840372;29;19979;-74
2023/10/04 00:20:16;;;;;;;;;;;12.50;99.90;;;;;;4840445;29;19947;-75
2023/10/04 00:22:43;;;;;;;;;;;12.50;99.90;;;;;;4838792;29;20324;-75
2023/10/04 00:25:28;;;;;;;;;;;12.50;99.90;;;;;;4824508;29;20398;-74
2023/10/04 00:27:57;;;;;;;;;;;12.50;99.90;;;;;;4840378;29;20365;-75
2023/10/04 00:30:25;;;;;;;;;;;12.40;99.90;;;;;;4840592;29;20380;-75
2023/10/04 00:32:53;;;;;;;;;;;12.40;99.90;;;;;;4840682;29;19924;-74
2023/10/04 00:35:19;;;;;;;;;;;12.40;99.90;;;;;;4840305;29;19935;-75
2023/10/04 00:37:50;;;;;;;;;;;12.40;99.90;;;;;;4840356;29;20356;-75
2023/10/04 00:40:21;;;;;;;;;;;12.40;99.90;;;;;;4839271;29;20440;-75
2023/10/04 00:42:47;;;;;;;;;;;12.40;99.90;;;;;;4843809;29;19951;-75
2023/10/04 00:45:13;;;;;;;;;;;12.40;99.90;;;;;;4856609;29;19920;-75
2023/10/04 00:47:44;;;;;;;;;;;12.40;99.90;;;;;;4860245;29;20344;-75
2023/10/04 00:50:17;;;;;;;;;;;12.30;99.90;;;;;;4843597;29;19924;-75
2023/10/04 00:52:51;;;;;;;;;;;12.40;99.90;;;;;;4843729;29;19920;-75
2023/10/04 00:55:19;;;;;;;;;;;12.30;99.90;;;;;;4843573;29;19935;-75
2023/10/04 00:57:48;;;;;;;;;;;12.30;99.90;;;;;;4843210;29;19940;-75
2023/10/04 01:00:14;;;;;;;;;;;12.20;99.90;;;;;;4843516;29;20296;-75
2023/10/04 01:02:40;;;;;;;;;;;12.20;99.90;;;;;;4843541;29;19924;-75
2023/10/04 01:05:07;;;;;;;;;;;12.20;99.90;;;;;;4828173;29;20384;-75
2023/10/04 01:07:32;;;;;;;;;;;12.20;99.90;;;;;;4860167;29;20316;-75
2023/10/04 01:09:58;;;;;;;;;;;12.10;99.90;;;;;;4843729;29;19924;-75
2023/10/04 01:12:24;;;;;;;;;;;12.10;99.90;;;;;;4843223;29;20080;-75
2023/10/04 01:14:53;;;;;;;;;;;12.10;99.90;;;;;;4843231;29;19927;-75
2023/10/04 01:17:19;;;;;;;;;;;12.00;99.90;;;;;;4843508;29;20031;-75
2023/10/04 01:19:44;;;;;;;;;;;12.10;99.90;;;;;;4843267;29;20548;-75
2023/10/04 01:22:11;;;;;;;;;;;12.00;99.90;;;;;;4843060;29;19923;-75
2023/10/04 01:24:41;;;;;;;;;;;12.10;99.90;;;;;;4842873;29;19924;-72
2023/10/04 01:27:07;;;;;;;;;;;12.10;99.90;;;;;;4842893;29;20378;-72
2023/10/04 01:29:33;;;;;;;;;;;12.10;99.90;;;;;;4842800;29;20344;-72
2023/10/04 01:31:58;;;;;;;;;;;12.10;99.90;;;;;;4843124;29;20011;-72
2023/10/04 01:34:24;;;;;;;;;;;12.10;99.90;;;;;;4842887;29;20273;-72
2023/10/04 01:36:49;;;;;;;;;;;12.10;99.90;;;;;;4842247;29;19928;-72
2023/10/04 01:39:19;;;;;;;;;;;12.10;99.90;;;;;;4844774;29;20022;-72
2023/10/04 01:41:45;;;;;;;;;;;12.10;99.90;;;;;;4842794;29;20045;-72
2023/10/04 01:44:11;;;;;;;;;;;12.10;99.90;;;;;;4827443;29;20350;-72
2023/10/04 01:46:37;;;;;;;;;;;12.10;99.90;;;;;;4842744;29;20010;-72
2023/10/04 01:49:04;;;;;;;;;;;12.10;99.90;;;;;;4827227;29;19946;-72
2023/10/04 01:51:30;;;;;;;;;;;12.10;99.90;;;;;;4841885;29;19931;-72
2023/10/04 01:53:59;;;;;;;;;;;12.10;99.90;;;;;;4842534;29;19920;-72
2023/10/04 01:56:25;;;;;;;;;;;12.10;99.90;;;;;;4841504;29;19931;-72
2023/10/04 01:58:51;;;;;;;;;;;12.10;99.90;;;;;;4842499;29;20518;-72
2023/10/04 02:01:17;;;;;;;;;;;12.10;99.90;;;;;;4841006;29;19928;-72
2023/10/04 02:03:42;;;;;;;;;;;12.20;99.90;;;;;;4841557;29;20299;-72
2023/10/04 02:06:08;;;;;;;;;;;12.10;99.90;;;;;;4841121;29;19923;-72
2023/10/04 02:08:34;;;;;;;;;;;12.10;99.90;;;;;;4841725;29;19924;-72
2023/10/04 02:11:00;;;;;;;;;;;12.10;99.90;;;;;;4840817;29;20626;-72
2023/10/04 02:13:27;;;;;;;;;;;12.10;99.90;;;;;;4826757;29;19967;-72
2023/10/04 02:15:53;;;;;;;;;;;12.10;99.90;;;;;;4842117;29;19984;-72
2023/10/04 02:18:19;;;;;;;;;;;12.10;99.90;;;;;;4841860;29;20011;-72
2023/10/04 02:20:49;;;;;;;;;;;12.00;99.90;;;;;;4841632;29;20384;-72
2023/10/04 02:23:18;;;;;;;;;;;12.10;99.90;;;;;;4842277;29;19924;-72
2023/10/04 02:25:44;;;;;;;;;;;12.00;99.90;;;;;;4841743;29;19980;-72
2023/10/04 02:28:18;;;;;;;;;;;12.00;99.90;;;;;;4841261;29;19928;-72
2023/10/04 02:30:47;;;;;;;;;;;12.00;99.90;;;;;;4856051;29;19928;-72
2023/10/04 02:33:13;;;;;;;;;;;11.90;99.90;;;;;;4841320;29;19932;-72
2023/10/04 02:35:48;;;;;;;;;;;11.90;99.90;;;;;;4841459;29;20006;-72
2023/10/04 02:38:19;;;;;;;;;;;11.90;99.90;;;;;;4841938;29;19923;-75
2023/10/04 02:40:45;;;;;;;;;;;11.90;99.90;;;;;;4826428;29;19924;-74
2023/10/04 02:43:11;;;;;;;;;;;11.80;99.90;;;;;;4841356;29;19920;-75
2023/10/04 02:45:37;;;;;;;;;;;11.90;99.90;;;;;;4841314;29;19931;-75
2023/10/04 02:48:04;;;;;;;;;;;11.90;99.90;;;;;;4826704;29;20686;-76
2023/10/04 02:50:29;;;;;;;;;;;11.90;99.90;;;;;;4841628;29;19924;-75
2023/10/04 02:52:56;;;;;;;;;;;11.90;99.90;;;;;;4841491;29;19935;-72
2023/10/04 02:55:22;;;;;;;;;;;11.90;99.90;;;;;;4845186;29;19927;-72
2023/10/04 02:57:51;;;;;;;;;;;11.90;99.90;;;;;;4842028;29;19924;-72
2023/10/04 03:00:17;;;;;;;;;;;11.90;99.90;;;;;;4843491;29;19927;-75
2023/10/04 03:02:44;;;;;;;;;;;12.00;99.90;;;;;;4843486;29;19924;-72
2023/10/04 03:05:11;;;;;;;;;;;12.00;99.90;;;;;;4845255;29;19975;-72
2023/10/04 03:07:41;;;;;;;;;;;12.00;99.90;;;;;;4842920;29;19928;-72
2023/10/04 03:10:08;;;;;;;;;;;12.10;99.90;;;;;;4858137;29;19991;-72
2023/10/04 03:12:33;;;;;;;;;;;12.10;99.90;;;;;;4827997;29;20002;-72
2023/10/04 03:14:59;;;;;;;;;;;12.10;99.90;;;;;;4842387;29;20416;-72
2023/10/04 03:17:25;;;;;;;;;;;12.00;99.90;;;;;;4842654;29;19920;-72
2023/10/04 03:19:51;;;;;;;;;;;12.00;99.90;;;;;;4841636;29;20015;-72
2023/10/04 03:22:19;;;;;;;;;;;12.00;99.90;;;;;;4844680;29;19935;-72
2023/10/04 03:24:47;;;;;;;;;;;12.00;99.90;;;;;;4840296;29;19928;-72
2023/10/04 03:27:12;;;;;;;;;;;12.00;99.90;;;;;;4857392;29;19988;-72
2023/10/04 03:29:39;;;;;;;;;;;11.90;99.90;;;;;;4843510;29;19923;-72
2023/10/04 03:32:05;;;;;;;;;;;11.90;99.90;;;;;;4841526;29;19948;-72
2023/10/04 03:34:30;;;;;;;;;;;11.90;99.90;;;;;;4842695;29;19963;-72
2023/10/04 03:37:08;;;;;;;;;;;11.90;99.90;;;;;;4842203;29;20534;-72
2023/10/04 03:39:34;;;;;;;;;;;11.90;99.90;;;;;;4840683;29;19978;-72
2023/10/04 03:42:00;;;;;;;;;;;11.90;99.90;;;;;;4841734;29;19928;-72
2023/10/04 03:44:26;;;;;;;;;;;11.90;99.90;;;;;;4827155;29;19924;-72
2023/10/04 03:46:53;;;;;;;;;;;11.90;99.90;;;;;;4841385;29;19924;-72
2023/10/04 03:49:21;;;;;;;;;;;12.00;99.90;;;;;;4841309;29;20352;-72
2023/10/04 03:51:49;;;;;;;;;;;12.00;99.90;;;;;;4841114;29;20156;-72
2023/10/04 03:54:15;;;;;;;;;;;12.00;99.90;;;;;;4841594;29;19924;-72
2023/10/04 03:56:43;;;;;;;;;;;12.00;99.90;;;;;;4861319;29;19944;-72
2023/10/04 03:59:10;;;;;;;;;;;12.00;99.90;;;;;;4843369;29;19932;-73
2023/10/04 04:01:39;;;;;;;;;;;12.00;99.90;;;;;;4840208;29;19920;-73
2023/10/04 04:04:06;;;;;;;;;;;12.00;99.90;;;;;;4840307;29;19920;-75
2023/10/04 04:06:32;;;;;;;;;;;12.00;99.90;;;;;;4844369;29;19928;-75
2023/10/04 04:09:01;;;;;;;;;;;12.00;99.90;;;;;;4841705;29;19920;-75
2023/10/04 04:11:26;;;;;;;;;;;12.00;99.90;;;;;;4841448;29;20383;-79
2023/10/04 04:13:52;;;;;;;;;;;12.00;99.90;;;;;;4840699;29;19920;-75
2023/10/04 04:16:18;;;;;;;;;;;12.00;99.90;;;;;;4843491;29;20043;-76
2023/10/04 04:18:44;;;;;;;;;;;11.90;99.90;;;;;;4843496;29;19928;-75
2023/10/04 04:21:10;;;;;;;;;;;11.80;99.90;;;;;;4844339;29;19975;-74
2023/10/04 04:23:36;;;;;;;;;;;11.80;99.90;;;;;;4838629;29;19931;-74
2023/10/04 04:26:05;;;;;;;;;;;11.90;99.90;;;;;;4844001;29;20924;-76
2023/10/04 04:28:37;;;;;;;;;;;11.80;99.90;;;;;;4842597;29;20011;-73
2023/10/04 04:31:14;;;;;;;;;;;11.80;99.90;;;;;;4842577;29;20280;-73
2023/10/04 04:33:40;;;;;;;;;;;11.80;99.90;;;;;;4856467;29;20392;-74
2023/10/04 04:36:09;;;;;;;;;;;11.80;99.90;;;;;;4841941;29;19920;-74
2023/10/04 04:38:38;;;;;;;;;;;11.80;99.90;;;;;;4843122;29;19928;-74
2023/10/04 04:41:11;;;;;;;;;;;11.80;99.90;;;;;;4842760;29;20460;-74
2023/10/04 04:43:37;;;;;;;;;;;11.80;99.90;;;;;;4839283;29;19920;-74
2023/10/04 04:46:08;;;;;;;;;;;11.70;99.90;;;;;;4828012;29;19924;-74
2023/10/04 04:48:37;;;;;;;;;;;11.70;99.90;;;;;;4844656;29;20026;-74
2023/10/04 04:51:15;;;;;;;;;;;11.80;99.90;;;;;;4843374;29;19920;-74
2023/10/04 04:53:41;;;;;;;;;;;11.80;99.90;;;;;;4842935;29;19943;-74
2023/10/04 04:56:12;;;;;;;;;;;11.80;99.90;;;;;;4843444;29;19935;-74
2023/10/04 04:58:38;;;;;;;;;;;11.80;99.90;;;;;;4843565;29;19992;-75
2023/10/04 05:01:08;;;;;;;;;;;11.80;99.90;;;;;;4842971;29;19923;-76
2023/10/04 05:03:34;;;;;;;;;;;11.80;99.90;;;;;;4844133;29;20010;-76
2023/10/04 05:06:00;;;;;;;;;;;11.90;99.90;;;;;;4844461;29;20014;-77
2023/10/04 05:08:25;;;;;;;;;;;11.90;99.90;;;;;;4845142;29;19920;-76
2023/10/04 05:10:54;;;;;;;;;;;11.90;99.90;;;;;;4845836;29;20445;-76
2023/10/04 05:13:22;;;;;;;;;;;11.90;99.90;;;;;;4843090;29;19939;-73
2023/10/04 05:15:49;;;;;;;;;;;11.90;99.90;;;;;;4825269;29;19982;-74
2023/10/04 05:18:15;;;;;;;;;;;11.90;99.90;;;;;;4841291;29;19952;-74
2023/10/04 05:20:42;;;;;;;;;;;11.90;99.90;;;;;;4842313;29;19995;-74
2023/10/04 05:23:09;;;;;;;;;;;11.90;99.90;;;;;;4845370;29;19931;-74
2023/10/04 05:25:35;;;;;;;;;;;11.90;99.90;;;;;;4842538;29;20303;-74
2023/10/04 05:28:11;;;;;;;;;;;12.00;99.90;;;;;;4857196;29;19943;-75
2023/10/04 05:30:38;;;;;;;;;;;11.90;99.90;;;;;;4841642;29;19931;-74
2023/10/04 05:33:03;;;;;;;;;;;11.90;99.90;;;;;;4842707;29;19924;-74
2023/10/04 05:35:29;;;;;;;;;;;11.90;99.90;;;;;;4842664;29;20284;-76
2023/10/04 05:37:55;;;;;;;;;;;11.90;99.90;;;;;;4842098;29;20368;-76
2023/10/04 05:40:25;;;;;;;;;;;12.00;99.90;;;;;;4842859;29;19927;-77
2023/10/04 05:42:51;;;;;;;;;;;12.00;99.90;;;;;;4827275;29;19924;-76
2023/10/04 05:45:17;;;;;;;;;;;12.00;99.90;;;;;;4842299;29;19969;-76
2023/10/04 05:47:43;;;;;;;;;;;12.00;99.90;;;;;;4842492;29;19928;-76
2023/10/04 05:50:10;;;;;;;;;;;12.00;99.90;;;;;;4840299;29;19931;-76
2023/10/04 05:52:37;;;;;;;;;;;12.10;99.90;;;;;;4842847;29;19920;-77
2023/10/04 05:55:03;;;;;;;;;;;12.00;99.90;;;;;;4842334;29;20000;-77
2023/10/04 05:57:29;;;;;;;;;;;12.00;99.90;;;;;;4842354;29;19931;-77
2023/10/04 05:59:55;;;;;;;;;;;12.10;99.90;;;;;;4841734;29;19928;-77
2023/10/04 06:02:22;;;;;;;;;;;12.10;99.90;;;;;;4842735;29;19955;-76
2023/10/04 06:04:48;;;;;;;;;;;12.00;99.90;;;;;;4843953;29;19920;-77
2023/10/04 06:07:14;;;;;;;;;;;12.00;99.90;;;;;;4840144;29;19935;-76
2023/10/04 06:09:42;;;;;;;;;;;12.00;99.90;;;;;;4842435;29;19931;-76
2023/10/04 06:12:08;;;;;;;;;;;12.10;99.90;;;;;;4840704;29;19928;-76
2023/10/04 06:14:35;;;;;;;;;;;12.00;99.90;;;;;;4845602;29;20308;-76
2023/10/04 06:17:00;;;;;;;;;;;12.00;99.90;;;;;;4846919;29;19924;-76
2023/10/04 06:19:28;;;;;;;;;;;12.00;99.90;;;;;;4842248;29;19932;-76
2023/10/04 06:21:53;;;;;;;;;;;12.10;99.90;;;;;;4844792;29;19971;-76
2023/10/04 06:24:19;;;;;;;;;;;12.10;99.90;;;;;;4843536;29;19966;-76
2023/10/04 06:26:44;;;;;;;;;;;12.20;99.90;;;;;;4844562;29;19928;-76
2023/10/04 06:29:10;;;;;;;;;;;12.10;99.90;;;;;;4842971;29;19920;-76
2023/10/04 06:31:36;;;;;;;;;;;12.20;99.90;;;;;;4841539;29;19927;-76
2023/10/04 06:34:02;;;;;;;;;;;12.20;99.90;;;;;;4842444;29;20065;-76
2023/10/04 06:36:29;;;;;;;;;;;12.20;99.90;;;;;;4842150;29;20341;-76
2023/10/04 06:38:55;;;;;;;;;;;12.20;99.90;;;;;;4841686;29;19934;-76
2023/10/04 06:41:25;;;;;;;;;;;12.30;99.90;;;;;;4825787;29;19920;-76
2023/10/04 06:43:50;;;;;;;;;;;12.30;99.90;;;;;;4826947;29;20010;-76
2023/10/04 06:46:17;;;;;;;;;;;12.40;99.90;;;;;;4830081;29;20006;-76
2023/10/04 06:48:43;;;;;;;;;;;12.40;99.90;;;;;;4843771;29;20353;-76
2023/10/04 06:51:09;;;;;;;;;;;12.40;99.90;;;;;;4843574;29;19923;-76
2023/10/04 06:53:35;;;;;;;;;;;12.50;99.90;;;;;;4842046;29;19924;-76
2023/10/04 06:56:01;;;;;;;;;;;12.50;99.90;;;;;;4825768;29;19946;-76
2023/10/04 06:58:28;;;;;;;;;;;12.60;99.90;;;;;;4856506;29;19932;-75
2023/10/04 07:00:56;;;;;;;;;;;12.60;99.90;;;;;;4839822;29;20237;-76
2023/10/04 07:03:22;;;;;;;;;;;12.70;99.90;;;;;;4840556;29;20376;-76
2023/10/04 07:05:49;;;;;;;;;;;12.80;99.90;;;;;;4841623;29;19923;-76
2023/10/04 07:08:16;;;;;;;;;;;12.90;99.90;;;;;;4844606;29;19962;-76
2023/10/04 07:10:42;;;;;;;;;;;12.90;99.90;;;;;;4842447;29;19947;-76
2023/10/04 07:13:09;;;;;;;;;;;13.00;99.90;;;;;;4842330;29;19919;-76
2023/10/04 07:15:35;;;;;;;;;;;13.00;99.90;;;;;;4811326;29;19959;-76
2023/10/04 07:18:07;;;;;;;;;;;13.20;99.90;;;;;;4840993;29;21076;-76
2023/10/04 07:20:33;;;;;;;;;;;13.30;99.90;;;;;;4842234;29;19920;-76
2023/10/04 07:23:03;;;;;;;;;;;13.40;99.90;;;;;;4826076;29;20329;-76
2023/10/04 07:25:29;;;;;;;;;;;13.50;99.90;;;;;;4841576;29;19924;-73
2023/10/04 07:27:56;;;;;;;;;;;13.60;99.90;;;;;;4840065;29;19938;-73
2023/10/04 07:30:24;;;;;;;;;;;13.80;99.90;;;;;;4842017;29;19935;-73
2023/10/04 07:32:51;;;;;;;;;;;13.90;99.90;;;;;;4842380;29;20332;-73
2023/10/04 07:35:20;;;;;;;;;;;13.90;99.90;;;;;;4859299;29;19924;-74
2023/10/04 07:37:47;;;;;;;;;;;14.10;99.90;;;;;;4825881;29;19939;-74
2023/10/04 07:40:14;;;;;;;;;;;14.20;99.90;;;;;;4840388;29;19928;-73
2023/10/04 07:42:40;;;;;;;;;;;14.30;99.90;;;;;;4825302;29;19924;-73
2023/10/04 07:45:09;;;;;;;;;;;14.40;99.90;;;;;;4841060;29;19967;-73
2023/10/04 07:47:38;;;;;;;;;;;14.50;99.90;;;;;;4840439;29;19993;-73
2023/10/04 07:50:05;;;;;;;;;;;14.60;99.90;;;;;;4839090;29;19928;-76
2023/10/04 07:52:31;;;;;;;;;;;14.70;99.90;;;;;;4844492;29;19927;-76
2023/10/04 07:54:59;;;;;;;;;;;14.80;99.90;;;;;;4844818;29;20014;-76
2023/10/04 07:57:28;;;;;;;;;;;14.90;99.90;;;;;;4845535;29;19924;-76
2023/10/04 07:59:54;;;;;;;;;;;14.90;99.90;;;;;;4845406;29;20364;-76
2023/10/04 08:02:20;;;;;;;;;;;15.00;99.90;;;;;;4844790;29;19970;-76
2023/10/04 08:04:48;;;;;;;;;;;15.00;99.90;;;;;;4848551;29;19931;-75
2023/10/04 08:07:15;;;;;;;;;;;15.10;99.90;;;;;;4845491;29;20305;-76
2023/10/04 08:09:41;;;;;;;;;;;15.10;99.90;;;;;;4847123;29;19928;-76
2023/10/04 08:12:10;;;;;;;;;;;15.10;99.90;;;;;;4845792;29;20406;-76
2023/10/04 08:14:35;;;;;;;;;;;15.20;99.90;;;;;;4830712;29;19924;-76
2023/10/04 08:17:01;;;;;;;;;;;15.30;99.90;;;;;;4846047;29;19972;-76
2023/10/04 08:19:27;;;;;;;;;;;15.30;99.90;;;;;;4844858;29;19935;-76
2023/10/04 08:21:52;;;;;;;;;;;15.30;99.90;;;;;;4847120;29;19920;-76
2023/10/04 08:24:20;;;;;;;;;;;15.30;99.90;;;;;;4831632;29;19923;-76
2023/10/04 08:26:48;;;;;;;;;;;15.30;99.90;;;;;;4830757;29;19928;-76
2023/10/04 08:29:14;;;;;;;;;;;15.30;99.90;;;;;;4816444;29;19927;-76
2023/10/04 08:31:40;;;;;;;;;;;15.40;99.90;;;;;;4844284;29;19920;-76
2023/10/04 08:34:05;;;;;;;;;;;15.40;99.90;;;;;;4847676;29;19931;-76
2023/10/04 08:36:33;;;;;;;;;;;15.40;99.90;;;;;;4844677;29;19976;-76
2023/10/04 08:39:10;;;;;;;;;;;15.50;99.90;;;;;;4845576;29;19931;-73
2023/10/04 08:41:37;;;;;;;;;;;15.60;99.90;;;;;;4844935;29;20039;-74
2023/10/04 08:44:03;;;;;;;;;;;15.60;99.90;;;;;;4844139;29;19927;-73
2023/10/04 08:46:31;;;;;;;;;;;15.60;99.90;;;;;;4844054;29;20568;-73
2023/10/04 08:48:57;;;;;;;;;;;15.60;99.90;;;;;;4843952;29;19920;-73
2023/10/04 08:51:27;;;;;;;;;;;15.70;99.90;;;;;;4830829;29;19924;-73
2023/10/04 08:53:55;;;;;;;;;;;15.70;99.90;;;;;;4846677;29;19920;-73
2023/10/04 08:56:23;;;;;;;;;;;15.70;99.90;;;;;;4845804;29;20269;-73
2023/10/04 08:58:48;;;;;;;;;;;15.80;99.90;;;;;;4845090;29;19935;-73
2023/10/04 09:01:15;;;;;;;;;;;15.80;99.90;;;;;;4846066;29;19920;-76
2023/10/04 09:03:42;;;;;;;;;;;15.80;99.90;;;;;;4862825;29;20010;-76
2023/10/04 09:06:10;;;;;;;;;;;15.80;99.90;;;;;;4860703;29;20356;-76
2023/10/04 09:08:37;;;;;;;;;;;15.80;99.90;;;;;;4843005;29;19949;-76
2023/10/04 09:11:10;;;;;;;;;;;15.80;99.90;;;;;;4845294;29;19924;-76
2023/10/04 09:13:42;;;;;;;;;;;15.90;99.90;;;;;;4846833;29;19927;-76
2023/10/04 09:16:37;;;;;;;;;;;16.00;99.90;;;;;;4845256;29;19934;-76
2023/10/04 09:19:07;;;;;;;;;;;16.10;99.90;;;;;;4827252;29;20027;-76
2023/10/04 09:21:38;;;;;;;;;;;16.10;99.90;;;;;;4844556;29;19928;-76
2023/10/04 09:24:05;;;;;;;;;;;16.10;99.90;;;;;;4843948;29;19920;-77
2023/10/04 09:26:30;;;;;;;;;;;16.20;99.90;;;;;;4843410;29;19946;-76
2023/10/04 09:28:56;;;;;;;;;;;16.20;99.90;;;;;;4845667;29;20372;-73
2023/10/04 09:31:22;;;;;;;;;;;16.30;99.90;;;;;;4845059;29;20328;-75
2023/10/04 09:33:47;;;;;;;;;;;16.40;99.90;;;;;;4846773;29;19995;-73
2023/10/04 09:36:30;;;;;;;;;;;16.50;99.90;;;;;;4844791;29;19927;-73
2023/10/04 09:39:16;;;;;;;;;;;16.60;99.90;;;;;;4843317;29;19952;-73
2023/10/04 09:41:42;;;;;;;;;;;16.60;99.90;;;;;;4828670;29;19928;-73
2023/10/04 09:44:17;;;;;;;;;;;16.60;99.90;;;;;;4844444;29;19924;-73
2023/10/04 09:46:54;;;;;;;;;;;16.70;99.90;;;;;;4843571;29;20014;-73
2023/10/04 09:49:23;;;;;;;;;;;16.70;99.90;;;;;;4845543;29;19919;-74
2023/10/04 09:51:50;;;;;;;;;;;16.70;99.90;;;;;;4859620;29;19927;-74
2023/10/04 09:54:18;;;;;;;;;;;16.70;99.90;;;;;;4844802;29;19919;-73
2023/10/04 09:56:46;;;;;;;;;;;16.90;99.90;;;;;;4845247;29;19924;-73
2023/10/04 09:59:14;;;;;;;;;;;16.90;99.90;;;;;;4847263;29;19931;-74
2023/10/04 10:01:40;;;;;;;;;;;17.00;99.90;;;;;;4845130;29;19995;-73
2023/10/04 10:04:10;;;;;;;;;;;17.10;99.90;;;;;;4843969;29;20372;-71
2023/10/04 10:06:47;;;;;;;;;;;17.30;99.90;;;;;;4842536;29;19924;-74
2023/10/04 10:09:16;;;;;;;;;;;17.50;99.90;;;;;;4829525;29;19923;-73
2023/10/04 10:11:45;;;;;;;;;;;17.40;82.40;;;;;;4846415;29;19920;-74
2023/10/04 10:14:14;;;;;;;;;;;17.30;30.40;;;;;;4843721;29;19924;-74
2023/10/04 10:16:41;;;;;;;;;;;17.30;26.80;;;;;;4861726;29;20019;-76
2023/10/04 10:19:08;;;;;;;;;;;17.40;78.60;;;;;;4842763;29;19946;-74
2023/10/04 10:21:53;;;;;;;;;;;17.40;99.90;;;;;;4844290;29;19983;-74
2023/10/04 10:24:18;;;;;;;;;;;17.40;99.90;;;;;;4857740;29;19924;-74
2023/10/04 10:26:44;;;;;;;;;;;17.40;99.90;;;;;;4842638;29;20016;-75
2023/10/04 10:29:20;;;;;;;;;;;17.40;96.00;;;;;;4842252;29;19931;-74
2023/10/04 10:31:52;;;;;;;;;;;17.40;96.00;;;;;;4842682;29;19931;-76
2023/10/04 10:34:17;;;;;;;;;;;17.40;92.20;;;;;;4845281;29;19920;-74
2023/10/04 10:36:43;;;;;;;;;;;17.30;91.40;;;;;;4843616;29;20389;-74
2023/10/04 10:39:18;;;;;;;;;;;17.30;91.40;;;;;;4844826;29;19964;-74
2023/10/04 10:42:07;;;;;;;;;;;17.30;99.90;;;;;;4842572;29;20384;-73
2023/10/04 10:44:34;;;;;;;;;;;17.20;78.40;;;;;;4842110;29;20292;-74
2023/10/04 10:47:08;;;;;;;;;;;17.20;99.90;;;;;;4842631;29;19920;-73
2023/10/04 10:49:39;;;;;;;;;;;17.10;99.90;;;;;;4844523;29;20002;-74
2023/10/04 10:52:07;;;;;;;;;;;17.10;99.90;;;;;;4842922;29;19927;-74
2023/10/04 10:54:34;;;;;;;;;;;17.00;99.90;;;;;;4842315;29;19976;-75
2023/10/04 10:57:00;;;;;;;;;;;16.90;72.60;;;;;;4827185;29;19920;-74
2023/10/04 10:59:26;;;;;;;;;;;16.90;99.90;;;;;;4847250;29;19934;-74
2023/10/04 11:01:51;;;;;;;;;;;16.80;94.00;;;;;;4846193;29;19967;-75
2023/10/04 11:04:18;;;;;;;;;;;16.70;99.90;;;;;;4844499;29;19950;-74
2023/10/04 11:06:45;;;;;;;;;;;16.70;99.90;;;;;;4829178;29;19975;-75
2023/10/04 11:09:12;;;;;;;;;;;16.70;99.90;;;;;;4863054;29;19974;-76
2023/10/04 11:11:38;;;;;;;;;;;16.70;99.90;;;;;;4847506;29;19920;-76
2023/10/04 11:14:05;;;;;;;;;;;16.70;99.90;;;;;;4845259;29;19920;-77
2023/10/04 11:16:33;;;;;;;;;;;16.70;99.90;;;;;;4843547;29;19943;-77
2023/10/04 11:19:00;;;;;;;;;;;16.80;99.90;;;;;;4846159;29;19959;-76
2023/10/04 11:21:26;;;;;;;;;;;16.80;99.90;;;;;;4843194;29;19936;-76
2023/10/04 11:23:51;;;;;;;;;;;16.90;99.90;;;;;;4843957;29;19924;-74
2023/10/04 11:26:17;;;;;;;;;;;16.90;99.90;;;;;;4841876;29;20405;-74
2023/10/04 11:28:43;;;;;;;;;;;16.80;99.90;;;;;;4812098;29;19920;-74
2023/10/04 11:31:09;;;;;;;;;;;16.90;99.90;;;;;;4841591;29;19924;-74
2023/10/04 11:33:50;;;;;;;;;;;17.10;99.90;;;;;;4841247;29;19954;-77
2023/10/04 11:36:22;;;;;;;;;;;17.20;99.90;;;;;;4844067;29;20014;-77
2023/10/04 11:38:49;;;;;;;;;;;17.20;69.90;;;;;;4845887;29;19932;-77
2023/10/04 11:41:15;;;;;;;;;;;17.30;66.60;;;;;;4828114;29;19920;-76
2023/10/04 11:43:41;;;;;;;;;;;17.30;89.00;;;;;;4841908;29;19920;-77
2023/10/04 11:46:08;;;;;;;;;;;17.30;72.30;;;;;;4843357;29;19985;-77
2023/10/04 11:48:33;;;;;;;;;;;17.20;25.90;;;;;;4842226;29;20347;-76
2023/10/04 11:51:01;;;;;;;;;;;17.20;43.70;;;;;;4827996;29;19920;-76
2023/10/04 11:53:33;;;;;;;;;;;17.10;19.30;;;;;;4827162;29;19931;-77
2023/10/04 11:55:59;;;;;;;;;;;17.10;31.30;;;;;;4841993;29;19924;-77
2023/10/04 11:58:25;;;;;;;;;;;17.10;35.10;;;;;;4844349;29;19967;-77
2023/10/04 12:01:06;;;;;;;;;;;17.20;30.50;;;;;;4843384;29;20418;-77
2023/10/04 12:03:32;;;;;;;;;;;17.20;51.80;;;;;;4843174;29;19920;-74
2023/10/04 12:05:59;;;;;;;;;;;17.30;87.60;;;;;;4811134;29;20433;-75
2023/10/04 12:08:25;;;;;;;;;;;17.30;23.60;;;;;;4826912;29;19967;-74
2023/10/04 12:10:50;;;;;;;;;;;17.30;49.00;;;;;;4841282;29;19958;-76
2023/10/04 12:13:16;;;;;;;;;;;17.40;65.40;;;;;;4825618;29;20265;-74
2023/10/04 12:15:42;;;;;;;;;;;17.40;91.00;;;;;;4842966;29;19927;-76
2023/10/04 12:18:09;;;;;;;;;;;17.30;47.40;;;;;;4843443;29;19992;-76
2023/10/04 12:20:36;;;;;;;;;;;17.30;62.80;;;;;;4843848;29;19927;-76
2023/10/04 12:23:02;;;;;;;;;;;17.30;66.60;;;;;;4842652;29;19928;-76
2023/10/04 12:25:28;;;;;;;;;;;17.30;19.30;;;;;;4828349;29;19939;-76
2023/10/04 12:27:54;;;;;;;;;;;17.30;53.60;;;;;;4842476;29;19920;-77
2023/10/04 12:30:21;;;;;;;;;;;17.30;25.90;;;;;;4841362;29;19924;-74
2023/10/04 12:32:46;;;;;;;;;;;17.40;53.80;;;;;;4825927;29;19950;-75
2023/10/04 12:35:13;;;;;;;;;;;17.40;82.00;;;;;;4825520;29;19935;-75
2023/10/04 12:37:39;;;;;;;;;;;17.50;99.90;;;;;;4843270;29;19928;-75
2023/10/04 12:40:15;;;;;;;;;;;17.60;95.70;;;;;;4843411;29;19928;-74
2023/10/04 12:42:41;;;;;;;;;;;17.60;72.50;;;;;;4846168;29;19931;-75
2023/10/04 12:45:10;;;;;;;;;;;17.70;92.00;;;;;;4844020;29;19924;-75
2023/10/04 12:47:36;;;;;;;;;;;17.80;36.60;;;;;;4830364;29;20368;-77
2023/10/04 12:50:02;;;;;;;;;;;18.00;72.60;;;;;;4844724;29;19976;-76
2023/10/04 12:52:30;;;;;;;;;;;18.00;29.40;;;;;;4846189;29;19972;-77
2023/10/04 12:54:57;;;;;;;;;;;18.00;62.10;;;;;;4844721;29;19923;-76
2023/10/04 12:57:23;;;;;;;;;;;18.00;20.20;;;;;;4844309;29;19920;-77
2023/10/04 12:59:48;;;;;;;;;;;18.10;67.80;;;;;;4843815;29;19932;-77
2023/10/04 13:02:14;;;;;;;;;;;18.00;63.20;;;;;;4843904;29;19978;-77
2023/10/04 13:04:39;;;;;;;;;;;18.00;71.40;;;;;;4846082;29;20012;-77
2023/10/04 13:07:05;;;;;;;;;;;17.90;51.00;;;;;;4844697;29;19924;-77
2023/10/04 13:09:32;;;;;;;;;;;17.80;59.90;;;;;;4844636;29;19927;-77
2023/10/04 13:11:58;;;;;;;;;;;17.70;99.80;;;;;;4844615;29;20173;-77
2023/10/04 13:14:24;;;;;;;;;;;17.70;99.90;;;;;;4844261;29;20302;-77
2023/10/04 13:16:49;;;;;;;;;;;17.60;99.90;;;;;;4860387;29;19931;-77
2023/10/04 13:19:15;;;;;;;;;;;17.60;99.90;;;;;;4830437;29;19928;-77
2023/10/04 13:21:41;;;;;;;;;;;17.50;93.00;;;;;;4845718;29;19939;-77
2023/10/04 13:24:06;;;;;;;;;;;17.40;66.60;;;;;;4862295;29;19924;-77
2023/10/04 13:26:33;;;;;;;;;;;17.50;99.90;;;;;;4813117;29;19970;-77
2023/10/04 13:28:59;;;;;;;;;;;17.40;47.00;;;;;;4844537;29;20349;-77
2023/10/04 13:31:25;;;;;;;;;;;17.40;67.40;;;;;;4843831;29;19943;-77
2023/10/04 13:33:51;;;;;;;;;;;17.30;82.00;;;;;;4845038;29;19932;-77
2023/10/04 13:36:16;;;;;;;;;;;17.30;99.90;;;;;;4843716;29;19971;-77
2023/10/04 13:38:42;;;;;;;;;;;17.30;99.90;;;;;;4843483;29;20007;-77
2023/10/04 13:41:11;;;;;;;;;;;17.20;99.90;;;;;;4842974;29;20019;-77
2023/10/04 13:43:37;;;;;;;;;;;17.20;99.90;;;;;;4841608;29;19964;-77
2023/10/04 13:46:03;;;;;;;;;;;17.30;99.90;;;;;;4844870;29;20341;-77
2023/10/04 13:48:29;;;;;;;;;;;17.30;99.90;;;;;;4844210;29;19920;-77
2023/10/04 13:50:59;;;;;;;;;;;17.30;99.90;;;;;;4829605;29;19928;-77
2023/10/04 13:53:26;;;;;;;;;;;17.30;99.90;;;;;;4844787;29;20022;-77
2023/10/04 13:55:51;;;;;;;;;;;17.40;99.90;;;;;;4830102;29;19923;-76
2023/10/04 13:58:21;;;;;;;;;;;17.40;99.90;;;;;;4844434;29;19927;-77
2023/10/04 14:00:49;;;;;;;;;;;17.40;99.90;;;;;;4846521;29;20669;-77
2023/10/04 14:03:16;;;;;;;;;;;17.40;99.90;;;;;;4844586;29;19923;-77
2023/10/04 14:05:42;;;;;;;;;;;17.30;99.90;;;;;;4844070;29;19935;-77
2023/10/04 14:08:11;;;;;;;;;;;17.30;99.90;;;;;;4845240;29;20295;-76
2023/10/04 14:10:37;;;;;;;;;;;17.20;99.90;;;;;;4858834;29;19975;-76
2023/10/04 14:13:03;;;;;;;;;;;17.10;99.90;;;;;;4843627;29;20387;-75
2023/10/04 14:15:29;;;;;;;;;;;17.00;99.90;;;;;;4829994;29;19935;-75
2023/10/04 14:17:56;;;;;;;;;;;16.90;99.90;;;;;;4843073;29;19930;-75